sensor_id;sensor_type;location;lat;lon;timestamp;pressure;altitude;pressure_sealevel;temperature;humidity
63552;BME280;49698;48.072;7.800;2023-06-14T00:02:08;98778.56;;;14.92;56.99
63552;BME280;49698;48.072;7.800;2023-06-14T00:04:37;98786.84;;;14.96;56.82
63552;BME280;49698;48.072;7.800;2023-06-14T00:07:07;98783.34;;;14.96;56.62
63552;BME280;49698;48.072;7.800;2023-06-14T00:09:36;98779.50;;;14.97;56.71
63552;BME280;49698;48.072;7.800;2023-06-14T00:12:04;98778.72;;;14.96;56.53
63552;BME280;49698;48.072;7.800;2023-06-14T00:14:32;98769.31;;;14.93;56.16
63552;BME280;49698;48.072;7.800;2023-06-14T00:17:00;98772.38;;;14.92;56.42
63552;BME280;49698;48.072;7.800;2023-06-14T00:19:29;98776.50;;;14.89;56.28
63552;BME280;49698;48.072;7.800;2023-06-14T00:22:01;98774.44;;;14.86;56.10
63552;BME280;49698;48.072;7.800;2023-06-14T00:24:31;98783.69;;;14.85;56.41
63552;BME280;49698;48.072;7.800;2023-06-14T00:26:59;98773.50;;;14.82;56.33
63552;BME280;49698;48.072;7.800;2023-06-14T00:29:28;98774.84;;;14.76;56.61
63552;BME280;49698;48.072;7.800;2023-06-14T00:31:56;98769.13;;;14.69;56.79
63552;BME280;49698;48.072;7.800;2023-06-14T00:34:26;98774.25;;;14.62;57.06
63552;BME280;49698;48.072;7.800;2023-06-14T00:36:54;98773.16;;;14.54;57.03
63552;BME280;49698;48.072;7.800;2023-06-14T00:39:22;98775.25;;;14.49;57.54
63552;BME280;49698;48.072;7.800;2023-06-14T00:41:51;98768.25;;;14.39;57.93
63552;BME280;49698;48.072;7.800;2023-06-14T00:44:19;98775.13;;;14.28;58.06
63552;BME280;49698;48.072;7.800;2023-06-14T00:46:48;98778.03;;;14.14;58.65
63552;BME280;49698;48.072;7.800;2023-06-14T00:49:17;98780.13;;;14.00;58.98
63552;BME280;49698;48.072;7.800;2023-06-14T00:51:45;98772.66;;;13.88;59.45
63552;BME280;49698;48.072;7.800;2023-06-14T00:54:13;98774.25;;;13.80;60.06
63552;BME280;49698;48.072;7.800;2023-06-14T00:56:43;98776.66;;;13.73;60.22
63552;BME280;49698;48.072;7.800;2023-06-14T00:59:13;98769.84;;;13.67;60.53
63552;BME280;49698;48.072;7.800;2023-06-14T01:01:42;98773.94;;;13.64;60.53
63552;BME280;49698;48.072;7.800;2023-06-14T01:04:10;98774.75;;;13.65;60.85
63552;BME280;49698;48.072;7.800;2023-06-14T01:06:45;98773.94;;;13.64;60.83
63552;BME280;49698;48.072;7.800;2023-06-14T01:09:25;98781.72;;;13.66;60.92
63552;BME280;49698;48.072;7.800;2023-06-14T01:12:15;98780.13;;;13.65;61.26
63552;BME280;49698;48.072;7.800;2023-06-14T01:14:50;98784.13;;;13.67;61.17
63552;BME280;49698;48.072;7.800;2023-06-14T01:17:19;98784.91;;;13.68;61.19
63552;BME280;49698;48.072;7.800;2023-06-14T01:19:48;98787.13;;;13.66;61.38
63552;BME280;49698;48.072;7.800;2023-06-14T01:22:16;98787.78;;;13.63;61.47
63552;BME280;49698;48.072;7.800;2023-06-14T01:24:46;98781.41;;;13.59;61.43
63552;BME280;49698;48.072;7.800;2023-06-14T01:27:14;98788.09;;;13.53;61.73
63552;BME280;49698;48.072;7.800;2023-06-14T01:29:43;98776.97;;;13.45;61.84
63552;BME280;49698;48.072;7.800;2023-06-14T01:32:14;98786.81;;;13.41;61.98
63552;BME280;49698;48.072;7.800;2023-06-14T01:34:44;98779.66;;;13.37;62.13
63552;BME280;49698;48.072;7.800;2023-06-14T01:37:12;98776.31;;;13.31;62.25
63552;BME280;49698;48.072;7.800;2023-06-14T01:39:43;98788.97;;;13.22;62.25
63552;BME280;49698;48.072;7.800;2023-06-14T01:42:13;98792.91;;;13.16;62.52
63552;BME280;49698;48.072;7.800;2023-06-14T01:44:42;98776.88;;;13.11;62.39
63552;BME280;49698;48.072;7.800;2023-06-14T01:47:12;98779.13;;;13.09;62.68
63552;BME280;49698;48.072;7.800;2023-06-14T01:49:40;98783.53;;;13.05;62.82
63552;BME280;49698;48.072;7.800;2023-06-14T01:52:08;98783.22;;;12.97;63.07
63552;BME280;49698;48.072;7.800;2023-06-14T01:54:36;98778.09;;;12.87;62.89
63552;BME280;49698;48.072;7.800;2023-06-14T01:57:08;98780.78;;;12.79;63.32
63552;BME280;49698;48.072;7.800;2023-06-14T01:59:38;98784.41;;;12.74;63.47
63552;BME280;49698;48.072;7.800;2023-06-14T02:02:06;98779.63;;;12.71;63.60
63552;BME280;49698;48.072;7.800;2023-06-14T02:04:34;98777.41;;;12.73;63.87
63552;BME280;49698;48.072;7.800;2023-06-14T02:07:02;98775.81;;;12.72;63.93
63552;BME280;49698;48.072;7.800;2023-06-14T02:09:30;98783.28;;;12.75;63.93
63552;BME280;49698;48.072;7.800;2023-06-14T02:11:58;98775.19;;;12.75;64.08
63552;BME280;49698;48.072;7.800;2023-06-14T02:14:26;98776.00;;;12.76;63.78
63552;BME280;49698;48.072;7.800;2023-06-14T02:16:55;98779.00;;;12.74;63.86
63552;BME280;49698;48.072;7.800;2023-06-14T02:19:23;98780.88;;;12.73;63.84
63552;BME280;49698;48.072;7.800;2023-06-14T02:21:52;98782.19;;;12.76;64.14
63552;BME280;49698;48.072;7.800;2023-06-14T02:24:20;98785.38;;;12.78;64.26
63552;BME280;49698;48.072;7.800;2023-06-14T02:26:48;98783.13;;;12.80;64.07
63552;BME280;49698;48.072;7.800;2023-06-14T02:29:16;98788.06;;;12.78;64.08
63552;BME280;49698;48.072;7.800;2023-06-14T02:31:44;98780.88;;;12.73;64.08
63552;BME280;49698;48.072;7.800;2023-06-14T02:34:15;98777.41;;;12.73;63.79
63552;BME280;49698;48.072;7.800;2023-06-14T02:36:43;98784.41;;;12.74;63.77
63552;BME280;49698;48.072;7.800;2023-06-14T02:39:12;98777.41;;;12.73;63.97
63552;BME280;49698;48.072;7.800;2023-06-14T02:41:40;98787.09;;;12.74;63.98
63552;BME280;49698;48.072;7.800;2023-06-14T02:44:09;98779.63;;;12.71;63.52
63552;BME280;49698;48.072;7.800;2023-06-14T02:46:38;98780.88;;;12.65;64.08
63552;BME280;49698;48.072;7.800;2023-06-14T02:49:06;98789.09;;;12.60;64.14
63552;BME280;49698;48.072;7.800;2023-06-14T02:51:35;98790.34;;;12.54;64.15
63552;BME280;49698;48.072;7.800;2023-06-14T02:54:03;98796.97;;;12.47;64.45
63552;BME280;49698;48.072;7.800;2023-06-14T02:56:31;98791.84;;;12.37;64.56
63552;BME280;49698;48.072;7.800;2023-06-14T02:58:59;98795.09;;;12.26;65.27
63552;BME280;49698;48.072;7.800;2023-06-14T03:01:28;98811.34;;;12.12;65.05
63552;BME280;49698;48.072;7.800;2023-06-14T03:04:05;98795.06;;;11.94;65.76
63552;BME280;49698;48.072;7.800;2023-06-14T03:06:36;98805.28;;;11.84;66.15
63552;BME280;49698;48.072;7.800;2023-06-14T03:09:07;98809.00;;;11.74;66.36
63552;BME280;49698;48.072;7.800;2023-06-14T03:11:38;98813.81;;;11.63;66.56
63552;BME280;49698;48.072;7.800;2023-06-14T03:14:06;98823.78;;;11.63;66.90
63552;BME280;49698;48.072;7.800;2023-06-14T03:16:36;98822.66;;;11.64;66.47
63552;BME280;49698;48.072;7.800;2023-06-14T03:19:04;98825.34;;;11.64;66.70
63552;BME280;49698;48.072;7.800;2023-06-14T03:21:32;98821.09;;;11.63;66.31
63552;BME280;49698;48.072;7.800;2023-06-14T03:24:04;98827.75;;;11.65;66.54
63552;BME280;49698;48.072;7.800;2023-06-14T03:26:34;98833.63;;;11.67;66.86
63552;BME280;49698;48.072;7.800;2023-06-14T03:29:04;98837.44;;;11.66;66.72
63552;BME280;49698;48.072;7.800;2023-06-14T03:31:34;98838.34;;;11.62;66.76
63552;BME280;49698;48.072;7.800;2023-06-14T03:34:05;98836.25;;;11.59;66.73
63552;BME280;49698;48.072;7.800;2023-06-14T03:36:33;98834.75;;;11.52;67.13
63552;BME280;49698;48.072;7.800;2023-06-14T03:39:01;98833.28;;;11.46;66.91
63552;BME280;49698;48.072;7.800;2023-06-14T03:41:31;98832.09;;;11.39;67.07
63552;BME280;49698;48.072;7.800;2023-06-14T03:43:59;98832.38;;;11.37;67.22
63552;BME280;49698;48.072;7.800;2023-06-14T03:46:27;98835.09;;;11.37;67.48
63552;BME280;49698;48.072;7.800;2023-06-14T03:48:55;98842.06;;;11.38;67.18
63552;BME280;49698;48.072;7.800;2023-06-14T03:51:23;98839.88;;;11.40;67.27
63552;BME280;49698;48.072;7.800;2023-06-14T03:53:52;98838.47;;;11.43;67.30
63552;BME280;49698;48.072;7.800;2023-06-14T03:56:25;98843.16;;;11.37;67.20
63552;BME280;49698;48.072;7.800;2023-06-14T03:58:55;98842.69;;;11.35;67.31
63552;BME280;49698;48.072;7.800;2023-06-14T04:01:26;98850.25;;;11.33;67.33
63552;BME280;49698;48.072;7.800;2023-06-14T04:03:58;98846.28;;;11.31;67.59
63552;BME280;49698;48.072;7.800;2023-06-14T04:06:26;98850.34;;;11.28;67.57
63552;BME280;49698;48.072;7.800;2023-06-14T04:08:59;98856.22;;;11.30;67.52
63552;BME280;49698;48.072;7.800;2023-06-14T04:11:30;98858.63;;;11.32;67.72
63552;BME280;49698;48.072;7.800;2023-06-14T04:14:01;98856.41;;;11.34;67.49
63552;BME280;49698;48.072;7.800;2023-06-14T04:16:29;98859.81;;;11.39;67.50
63552;BME280;49698;48.072;7.800;2023-06-14T04:18:59;98861.00;;;11.47;67.79
63552;BME280;49698;48.072;7.800;2023-06-14T04:21:27;98872.34;;;11.58;67.31
63552;BME280;49698;48.072;7.800;2023-06-14T04:23:58;98873.69;;;11.69;67.22
63552;BME280;49698;48.072;7.800;2023-06-14T04:26:31;98881.56;;;11.79;66.67
63552;BME280;49698;48.072;7.800;2023-06-14T04:29:02;98882.06;;;11.81;66.92
63552;BME280;49698;48.072;7.800;2023-06-14T04:31:34;98883.38;;;11.84;66.55
63552;BME280;49698;48.072;7.800;2023-06-14T04:34:06;98885.03;;;11.80;66.73
63552;BME280;49698;48.072;7.800;2023-06-14T04:36:35;98888.53;;;11.80;66.64
63552;BME280;49698;48.072;7.800;2023-06-14T04:39:04;98894.34;;;11.87;66.49
63552;BME280;49698;48.072;7.800;2023-06-14T04:41:33;98893.94;;;11.94;66.69
63552;BME280;49698;48.072;7.800;2023-06-14T04:44:03;98898.59;;;12.02;66.36
63552;BME280;49698;48.072;7.800;2023-06-14T04:46:37;98908.81;;;12.14;65.90
63552;BME280;49698;48.072;7.800;2023-06-14T04:49:13;98906.38;;;12.26;65.91
63552;BME280;49698;48.072;7.800;2023-06-14T04:51:42;98906.63;;;12.38;65.20
63552;BME280;49698;48.072;7.800;2023-06-14T04:54:10;98905.78;;;12.52;65.37
63552;BME280;49698;48.072;7.800;2023-06-14T04:56:41;98901.91;;;12.66;65.23
63552;BME280;49698;48.072;7.800;2023-06-14T04:59:12;98907.38;;;12.84;64.92
63552;BME280;49698;48.072;7.800;2023-06-14T05:01:41;98908.09;;;12.98;65.32
63552;BME280;49698;48.072;7.800;2023-06-14T05:04:15;98923.09;;;13.13;64.71
63552;BME280;49698;48.072;7.800;2023-06-14T05:06:43;98917.44;;;13.23;64.53
63552;BME280;49698;48.072;7.800;2023-06-14T05:09:13;98919.22;;;13.36;64.29
63552;BME280;49698;48.072;7.800;2023-06-14T05:11:41;98914.81;;;13.49;64.15
63552;BME280;49698;48.072;7.800;2023-06-14T05:14:13;98915.00;;;13.61;63.72
63552;BME280;49698;48.072;7.800;2023-06-14T05:16:42;98915.69;;;13.76;63.61
63552;BME280;49698;48.072;7.800;2023-06-14T05:19:10;98915.53;;;13.89;62.99
63552;BME280;49698;48.072;7.800;2023-06-14T05:21:39;98917.94;;;14.00;62.83
63552;BME280;49698;48.072;7.800;2023-06-14T05:24:08;98918.25;;;14.15;62.47
63552;BME280;49698;48.072;7.800;2023-06-14T05:26:38;98918.09;;;14.29;62.01
63552;BME280;49698;48.072;7.800;2023-06-14T05:29:05;98919.38;;;14.40;61.92
63552;BME280;49698;48.072;7.800;2023-06-14T05:31:35;98919.38;;;14.49;61.73
63552;BME280;49698;48.072;7.800;2023-06-14T05:34:03;98923.81;;;14.54;61.79
63552;BME280;49698;48.072;7.800;2023-06-14T05:36:31;98930.19;;;14.58;61.72
63552;BME280;49698;48.072;7.800;2023-06-14T05:38:59;98926.84;;;14.61;61.76
63552;BME280;49698;48.072;7.800;2023-06-14T05:41:29;98928.09;;;14.63;61.79
63552;BME280;49698;48.072;7.800;2023-06-14T05:43:57;98927.16;;;14.68;61.85
63552;BME280;49698;48.072;7.800;2023-06-14T05:46:26;98933.81;;;14.71;61.71
63552;BME280;49698;48.072;7.800;2023-06-14T05:48:56;98937.00;;;14.73;61.77
63552;BME280;49698;48.072;7.800;2023-06-14T05:51:24;98936.03;;;14.77;61.90
63552;BME280;49698;48.072;7.800;2023-06-14T05:53:53;98936.53;;;14.79;61.96
63552;BME280;49698;48.072;7.800;2023-06-14T05:56:21;98942.06;;;14.83;62.04
63552;BME280;49698;48.072;7.800;2023-06-14T05:58:49;98940.16;;;14.83;61.91
63552;BME280;49698;48.072;7.800;2023-06-14T06:01:18;98940.78;;;14.89;61.97
63552;BME280;49698;48.072;7.800;2023-06-14T06:03:46;98937.75;;;14.90;61.95
63552;BME280;49698;48.072;7.800;2023-06-14T06:06:16;98940.94;;;14.92;62.11
63552;BME280;49698;48.072;7.800;2023-06-14T06:08:44;98937.59;;;14.96;62.14
63552;BME280;49698;48.072;7.800;2023-06-14T06:11:12;98947.09;;;15.02;61.72
63552;BME280;49698;48.072;7.800;2023-06-14T06:13:40;98939.63;;;15.07;61.73
63552;BME280;49698;48.072;7.800;2023-06-14T06:16:08;98938.97;;;15.10;61.55
63552;BME280;49698;48.072;7.800;2023-06-14T06:18:36;98943.41;;;15.15;61.38
63552;BME280;49698;48.072;7.800;2023-06-14T06:21:04;98944.34;;;15.19;60.98
63552;BME280;49698;48.072;7.800;2023-06-14T06:23:34;98946.88;;;15.24;60.98
63552;BME280;49698;48.072;7.800;2023-06-14T06:26:02;98954.16;;;15.32;60.83
63552;BME280;49698;48.072;7.800;2023-06-14T06:28:31;98947.47;;;15.38;60.48
63552;BME280;49698;48.072;7.800;2023-06-14T06:30:59;98947.09;;;15.49;60.28
63552;BME280;49698;48.072;7.800;2023-06-14T06:33:28;98957.56;;;15.59;60.28
63552;BME280;49698;48.072;7.800;2023-06-14T06:35:57;98953.38;;;15.70;59.79
63552;BME280;49698;48.072;7.800;2023-06-14T06:38:25;98957.59;;;15.88;59.23
63552;BME280;49698;48.072;7.800;2023-06-14T06:40:54;98959.88;;;16.07;58.89
63552;BME280;49698;48.072;7.800;2023-06-14T06:43:23;98963.22;;;16.25;58.53
63552;BME280;49698;48.072;7.800;2023-06-14T06:45:51;98960.38;;;16.43;58.00
63552;BME280;49698;48.072;7.800;2023-06-14T06:48:46;98966.13;;;16.62;57.44
63552;BME280;49698;48.072;7.800;2023-06-14T06:51:14;98966.44;;;16.81;56.79
63552;BME280;49698;48.072;7.800;2023-06-14T06:53:42;98967.88;;;17.00;56.14
63552;BME280;49698;48.072;7.800;2023-06-14T06:56:15;98966.41;;;17.15;55.93
63552;BME280;49698;48.072;7.800;2023-06-14T06:58:43;98963.81;;;17.30;55.46
63552;BME280;49698;48.072;7.800;2023-06-14T07:01:11;98970.31;;;17.50;55.01
63552;BME280;49698;48.072;7.800;2023-06-14T07:03:42;98972.91;;;17.71;54.33
63552;BME280;49698;48.072;7.800;2023-06-14T07:06:10;98968.19;;;17.93;53.55
63552;BME280;49698;48.072;7.800;2023-06-14T07:08:38;98968.44;;;18.16;52.99
63552;BME280;49698;48.072;7.800;2023-06-14T07:11:06;98960.81;;;18.33;52.47
63552;BME280;49698;48.072;7.800;2023-06-14T07:13:36;98966.00;;;18.51;52.04
63552;BME280;49698;48.072;7.800;2023-06-14T07:16:04;98963.44;;;18.70;51.58
63552;BME280;49698;48.072;7.800;2023-06-14T07:18:32;98970.88;;;18.86;51.14
63552;BME280;49698;48.072;7.800;2023-06-14T07:21:01;98968.97;;;19.02;50.51
63552;BME280;49698;48.072;7.800;2023-06-14T07:23:30;98970.03;;;19.13;50.21
63552;BME280;49698;48.072;7.800;2023-06-14T07:25:58;98971.97;;;19.28;49.68
63552;BME280;49698;48.072;7.800;2023-06-14T07:28:26;98975.50;;;19.45;49.43
63552;BME280;49698;48.072;7.800;2023-06-14T07:30:55;98977.16;;;19.65;49.11
63552;BME280;49698;48.072;7.800;2023-06-14T07:33:24;98973.44;;;19.89;48.60
63552;BME280;49698;48.072;7.800;2023-06-14T07:35:52;98981.66;;;20.09;48.26
63552;BME280;49698;48.072;7.800;2023-06-14T07:38:20;98976.59;;;20.26;47.71
63552;BME280;49698;48.072;7.800;2023-06-14T07:40:48;98978.78;;;20.37;47.40
63552;BME280;49698;48.072;7.800;2023-06-14T07:43:16;98984.72;;;20.42;47.49
63552;BME280;49698;48.072;7.800;2023-06-14T07:45:44;98976.78;;;20.53;47.21
63552;BME280;49698;48.072;7.800;2023-06-14T07:48:18;98985.69;;;20.69;47.03
63552;BME280;49698;48.072;7.800;2023-06-14T07:50:46;98975.91;;;20.88;46.65
63552;BME280;49698;48.072;7.800;2023-06-14T07:53:14;98979.81;;;21.10;46.46
63552;BME280;49698;48.072;7.800;2023-06-14T07:55:42;98976.38;;;21.36;46.17
63552;BME280;49698;48.072;7.800;2023-06-14T07:58:15;98978.66;;;21.53;45.71
63552;BME280;49698;48.072;7.800;2023-06-14T08:00:43;98979.91;;;21.59;45.42
63552;BME280;49698;48.072;7.800;2023-06-14T08:03:11;98969.13;;;21.70;45.17
63552;BME280;49698;48.072;7.800;2023-06-14T08:05:40;98963.88;;;21.84;44.77
63552;BME280;49698;48.072;7.800;2023-06-14T08:08:08;98965.50;;;21.89;44.39
63552;BME280;49698;48.072;7.800;2023-06-14T08:10:36;98966.06;;;22.02;44.18
63552;BME280;49698;48.072;7.800;2023-06-14T08:13:04;98971.00;;;22.15;43.84
63552;BME280;49698;48.072;7.800;2023-06-14T08:15:32;98978.59;;;22.29;43.33
63552;BME280;49698;48.072;7.800;2023-06-14T08:18:00;98973.69;;;22.42;43.01
63552;BME280;49698;48.072;7.800;2023-06-14T08:20:28;98968.69;;;22.51;42.60
63552;BME280;49698;48.072;7.800;2023-06-14T08:22:59;98972.75;;;22.64;42.25
63552;BME280;49698;48.072;7.800;2023-06-14T08:25:27;98973.63;;;22.72;41.45
63552;BME280;49698;48.072;7.800;2023-06-14T08:27:55;98975.31;;;22.84;41.27
63552;BME280;49698;48.072;7.800;2023-06-14T08:30:23;98965.34;;;22.99;40.47
63552;BME280;49698;48.072;7.800;2023-06-14T08:32:51;98964.66;;;23.09;40.39
63552;BME280;49698;48.072;7.800;2023-06-14T08:35:28;98959.69;;;23.22;39.54
63552;BME280;49698;48.072;7.800;2023-06-14T08:37:56;98960.94;;;23.28;39.70
63552;BME280;49698;48.072;7.800;2023-06-14T08:40:27;98957.75;;;23.26;39.58
63552;BME280;49698;48.072;7.800;2023-06-14T08:42:57;98957.00;;;23.29;39.69
63552;BME280;49698;48.072;7.800;2023-06-14T08:45:24;98956.69;;;23.37;39.50
63552;BME280;49698;48.072;7.800;2023-06-14T08:47:54;98950.53;;;23.51;39.39
63552;BME280;49698;48.072;7.800;2023-06-14T08:50:25;98947.94;;;23.69;39.29
63552;BME280;49698;48.072;7.800;2023-06-14T08:52:58;98957.41;;;23.79;38.19
63552;BME280;49698;48.072;7.800;2023-06-14T08:55:30;98955.84;;;23.78;38.02
63552;BME280;49698;48.072;7.800;2023-06-14T08:58:00;98959.00;;;23.80;38.15
63552;BME280;49698;48.072;7.800;2023-06-14T09:00:30;98953.91;;;23.82;37.90
63552;BME280;49698;48.072;7.800;2023-06-14T09:03:02;98954.31;;;23.84;37.68
63552;BME280;49698;48.072;7.800;2023-06-14T09:05:39;98959.81;;;23.84;37.66
63552;BME280;49698;48.072;7.800;2023-06-14T09:08:07;98958.25;;;23.86;37.70
63552;BME280;49698;48.072;7.800;2023-06-14T09:10:39;98955.13;;;23.88;37.74
63552;BME280;49698;48.072;7.800;2023-06-14T09:13:07;98965.81;;;24.04;37.93
63552;BME280;49698;48.072;7.800;2023-06-14T09:15:36;98956.81;;;24.10;37.22
63552;BME280;49698;48.072;7.800;2023-06-14T09:18:04;98954.50;;;24.20;37.57
63552;BME280;49698;48.072;7.800;2023-06-14T09:20:32;98949.09;;;24.34;37.48
63552;BME280;49698;48.072;7.800;2023-06-14T09:23:01;98952.72;;;24.52;37.34
63552;BME280;49698;48.072;7.800;2023-06-14T09:25:29;98953.16;;;24.69;37.37
63552;BME280;49698;48.072;7.800;2023-06-14T09:28:06;98957.53;;;24.84;37.20
63552;BME280;49698;48.072;7.800;2023-06-14T09:30:36;98959.50;;;24.87;36.47
63552;BME280;49698;48.072;7.800;2023-06-14T09:33:04;98963.44;;;24.93;36.50
63552;BME280;49698;48.072;7.800;2023-06-14T09:35:32;98958.72;;;24.97;36.55
63552;BME280;49698;48.072;7.800;2023-06-14T09:38:00;98960.31;;;25.02;36.38
63552;BME280;49698;48.072;7.800;2023-06-14T09:40:33;98956.41;;;25.06;36.36
63552;BME280;49698;48.072;7.800;2023-06-14T09:43:06;98967.47;;;25.21;36.47
63552;BME280;49698;48.072;7.800;2023-06-14T09:45:35;98964.31;;;25.29;36.42
63552;BME280;49698;48.072;7.800;2023-06-14T09:48:04;98971.78;;;25.32;36.03
63552;BME280;49698;48.072;7.800;2023-06-14T09:50:33;98972.19;;;25.42;35.69
63552;BME280;49698;48.072;7.800;2023-06-14T09:53:05;98970.97;;;25.39;35.92
63552;BME280;49698;48.072;7.800;2023-06-14T09:55:35;98968.22;;;25.32;35.83
63552;BME280;49698;48.072;7.800;2023-06-14T09:58:09;98968.25;;;25.21;36.18
63552;BME280;49698;48.072;7.800;2023-06-14T10:00:39;98960.34;;;25.12;35.67
63552;BME280;49698;48.072;7.800;2023-06-14T10:03:12;98964.28;;;25.11;35.67
63552;BME280;49698;48.072;7.800;2023-06-14T10:05:43;98955.25;;;25.15;35.20
63552;BME280;49698;48.072;7.800;2023-06-14T10:08:14;98959.56;;;25.16;35.10
63552;BME280;49698;48.072;7.800;2023-06-14T10:10:46;98957.25;;;25.25;35.05
63552;BME280;49698;48.072;7.800;2023-06-14T10:13:16;98954.47;;;25.32;35.22
63552;BME280;49698;48.072;7.800;2023-06-14T10:15:52;98952.91;;;25.38;35.07
63552;BME280;49698;48.072;7.800;2023-06-14T10:18:30;98944.25;;;25.50;35.14
63552;BME280;49698;48.072;7.800;2023-06-14T10:21:04;98952.88;;;25.67;35.03
63552;BME280;49698;48.072;7.800;2023-06-14T10:23:37;98956.44;;;25.67;34.22
63552;BME280;49698;48.072;7.800;2023-06-14T10:26:06;98950.94;;;25.60;34.11
63552;BME280;49698;48.072;7.800;2023-06-14T10:28:38;98943.06;;;25.58;34.69
63552;BME280;49698;48.072;7.800;2023-06-14T10:31:07;98945.03;;;25.65;34.75
63552;BME280;49698;48.072;7.800;2023-06-14T10:33:36;98939.53;;;25.76;34.63
63552;BME280;49698;48.072;7.800;2023-06-14T10:36:09;98934.41;;;25.85;34.41
63552;BME280;49698;48.072;7.800;2023-06-14T10:38:37;98932.84;;;25.91;34.44
63552;BME280;49698;48.072;7.800;2023-06-14T10:41:06;98937.13;;;26.03;34.16
63552;BME280;49698;48.072;7.800;2023-06-14T10:43:34;98924.50;;;26.09;34.04
63552;BME280;49698;48.072;7.800;2023-06-14T10:46:17;98933.53;;;26.20;33.48
63552;BME280;49698;48.072;7.800;2023-06-14T10:48:48;98931.09;;;26.37;33.69
63552;BME280;49698;48.072;7.800;2023-06-14T10:51:18;98930.28;;;26.47;32.94
63552;BME280;49698;48.072;7.800;2023-06-14T10:53:49;98921.63;;;26.45;33.15
63552;BME280;49698;48.072;7.800;2023-06-14T10:56:26;98925.56;;;26.40;33.12
63552;BME280;49698;48.072;7.800;2023-06-14T10:58:55;98929.50;;;26.39;32.75
63552;BME280;49698;48.072;7.800;2023-06-14T11:01:35;98937.81;;;26.32;32.50
63552;BME280;49698;48.072;7.800;2023-06-14T11:04:07;98931.16;;;26.26;32.23
63552;BME280;49698;48.072;7.800;2023-06-14T11:06:45;98939.44;;;26.19;32.36
63552;BME280;49698;48.072;7.800;2023-06-14T11:09:47;98931.53;;;26.21;32.32
63552;BME280;49698;48.072;7.800;2023-06-14T11:12:20;98934.66;;;26.33;32.08
63552;BME280;49698;48.072;7.800;2023-06-14T11:14:49;98930.28;;;26.40;31.63
63552;BME280;49698;48.072;7.800;2023-06-14T11:17:18;98932.25;;;26.43;31.30
63552;BME280;49698;48.072;7.800;2023-06-14T11:19:46;98935.78;;;26.50;31.47
63552;BME280;49698;48.072;7.800;2023-06-14T11:22:14;98932.25;;;26.50;31.33
63552;BME280;49698;48.072;7.800;2023-06-14T11:24:43;98927.13;;;26.48;31.16
63552;BME280;49698;48.072;7.800;2023-06-14T11:27:12;98921.63;;;26.45;31.68
63552;BME280;49698;48.072;7.800;2023-06-14T11:29:47;98912.50;;;26.58;31.91
63552;BME280;49698;48.072;7.800;2023-06-14T11:32:15;98908.91;;;26.72;32.11
63552;BME280;49698;48.072;7.800;2023-06-14T11:34:47;98920.31;;;26.71;32.05
63552;BME280;49698;48.072;7.800;2023-06-14T11:37:15;98919.19;;;26.65;32.25
63552;BME280;49698;48.072;7.800;2023-06-14T11:39:44;98916.03;;;26.66;32.35
63552;BME280;49698;48.072;7.800;2023-06-14T11:42:13;98904.16;;;26.73;32.37
63552;BME280;49698;48.072;7.800;2023-06-14T11:44:41;98918.28;;;26.82;31.56
63552;BME280;49698;48.072;7.800;2023-06-14T11:47:09;98918.69;;;26.84;31.54
63552;BME280;49698;48.072;7.800;2023-06-14T11:49:37;98912.00;;;26.81;31.35
63552;BME280;49698;48.072;7.800;2023-06-14T11:52:07;98919.84;;;26.83;31.12
63552;BME280;49698;48.072;7.800;2023-06-14T11:54:35;98911.16;;;26.88;31.21
63552;BME280;49698;48.072;7.800;2023-06-14T11:57:04;98917.84;;;26.87;31.06
63552;BME280;49698;48.072;7.800;2023-06-14T11:59:32;98909.56;;;26.87;31.21
63552;BME280;49698;48.072;7.800;2023-06-14T12:02:03;98898.19;;;26.85;31.20
63552;BME280;49698;48.072;7.800;2023-06-14T12:04:31;98903.25;;;26.90;30.73
63552;BME280;49698;48.072;7.800;2023-06-14T12:07:10;98902.50;;;26.82;30.72
63552;BME280;49698;48.072;7.800;2023-06-14T12:09:38;98905.66;;;26.88;30.86
63552;BME280;49698;48.072;7.800;2023-06-14T12:12:07;98906.41;;;26.92;30.54
63552;BME280;49698;48.072;7.800;2023-06-14T12:14:36;98892.63;;;26.89;30.26
63552;BME280;49698;48.072;7.800;2023-06-14T12:17:05;98886.72;;;26.90;30.30
63552;BME280;49698;48.072;7.800;2023-06-14T12:19:41;98888.28;;;26.91;30.22
63552;BME280;49698;48.072;7.800;2023-06-14T12:22:12;98891.72;;;27.02;30.42
63552;BME280;49698;48.072;7.800;2023-06-14T12:24:42;98888.16;;;27.09;30.12
63552;BME280;49698;48.072;7.800;2023-06-14T12:27:10;98892.47;;;27.14;30.35
63552;BME280;49698;48.072;7.800;2023-06-14T12:29:42;98886.88;;;27.24;30.41
63552;BME280;49698;48.072;7.800;2023-06-14T12:32:11;98893.53;;;27.30;30.08
63552;BME280;49698;48.072;7.800;2023-06-14T12:34:39;98889.59;;;27.28;30.24
63552;BME280;49698;48.072;7.800;2023-06-14T12:37:07;98882.53;;;27.27;29.97
63552;BME280;49698;48.072;7.800;2023-06-14T12:39:36;98899.81;;;27.31;30.14
63552;BME280;49698;48.072;7.800;2023-06-14T12:42:06;98892.78;;;27.26;29.49
63552;BME280;49698;48.072;7.800;2023-06-14T12:44:34;98892.84;;;27.16;29.31
63552;BME280;49698;48.072;7.800;2023-06-14T12:47:07;98882.28;;;27.11;29.46
63552;BME280;49698;48.072;7.800;2023-06-14T12:49:35;98882.66;;;27.05;29.54
63552;BME280;49698;48.072;7.800;2023-06-14T12:52:03;98891.31;;;27.07;30.04
63552;BME280;49698;48.072;7.800;2023-06-14T12:54:31;98894.06;;;27.15;29.83
63552;BME280;49698;48.072;7.800;2023-06-14T12:57:07;98898.75;;;27.18;30.15
63552;BME280;49698;48.072;7.800;2023-06-14T12:59:36;98894.06;;;27.15;29.81
63552;BME280;49698;48.072;7.800;2023-06-14T13:02:12;98896.44;;;27.13;30.02
63552;BME280;49698;48.072;7.800;2023-06-14T13:04:40;98896.84;;;27.11;30.24
63552;BME280;49698;48.072;7.800;2023-06-14T13:07:11;98904.69;;;27.16;30.46
63552;BME280;49698;48.072;7.800;2023-06-14T13:09:39;98903.53;;;27.06;30.12
63552;BME280;49698;48.072;7.800;2023-06-14T13:12:10;98898.84;;;27.03;30.34
63552;BME280;49698;48.072;7.800;2023-06-14T13:14:39;98899.59;;;27.07;30.29